sensor_id;sensor_type;location;lat;lon;timestamp;temperature;humidity
32769;DHT22;23049;54.304;8.826;2022-12-04T00:01:29;1.80;99.90
32769;DHT22;23049;54.304;8.826;2022-12-04T00:03:58;1.70;99.90
32769;DHT22;23049;54.304;8.826;2022-12-04T00:06:23;1.70;99.90
32769;DHT22;23049;54.304;8.826;2022-12-04T00:08:49;1.70;99.90
32769;DHT22;23049;54.304;8.826;2022-12-04T00:11:20;1.60;99.90
32769;DHT22;23049;54.304;8.826;2022-12-04T00:13:46;1.60;99.90
32769;DHT22;23049;54.304;8.826;2022-12-04T00:16:13;1.60;99.90
32769;DHT22;23049;54.304;8.826;2022-12-04T00:18:39;1.60;99.90
32769;DHT22;23049;54.304;8.826;2022-12-04T00:21:05;1.60;99.90
32769;DHT22;23049;54.304;8.826;2022-12-04T00:23:31;1.60;99.90
32769;DHT22;23049;54.304;8.826;2022-12-04T00:26:00;1.60;99.90
32769;DHT22;23049;54.304;8.826;2022-12-04T00:28:26;1.50;99.90
32769;DHT22;23049;54.304;8.826;2022-12-04T00:30:52;1.50;99.90
32769;DHT22;23049;54.304;8.826;2022-12-04T00:33:17;1.50;99.90
32769;DHT22;23049;54.304;8.826;2022-12-04T00:35:43;1.50;99.90
32769;DHT22;23049;54.304;8.826;2022-12-04T00:38:08;1.50;99.90
32769;DHT22;23049;54.304;8.826;2022-12-04T00:40:34;1.40;99.90
32769;DHT22;23049;54.304;8.826;2022-12-04T00:42:59;1.40;99.90
32769;DHT22;23049;54.304;8.826;2022-12-04T00:45:25;1.50;99.90
32769;DHT22;23049;54.304;8.826;2022-12-04T00:47:50;1.50;99.90
32769;DHT22;23049;54.304;8.826;2022-12-04T00:50:16;1.50;99.90
32769;DHT22;23049;54.304;8.826;2022-12-04T00:52:41;1.30;99.90
32769;DHT22;23049;54.304;8.826;2022-12-04T00:55:07;1.50;99.90
32769;DHT22;23049;54.304;8.826;2022-12-04T00:57:32;1.40;99.90
32769;DHT22;23049;54.304;8.826;2022-12-04T00:59:58;1.40;99.90
32769;DHT22;23049;54.304;8.826;2022-12-04T01:02:23;1.40;99.90
32769;DHT22;23049;54.304;8.826;2022-12-04T01:04:49;1.30;99.90
32769;DHT22;23049;54.304;8.826;2022-12-04T01:07:14;1.30;99.90
32769;DHT22;23049;54.304;8.826;2022-12-04T01:09:40;1.30;99.90
32769;DHT22;23049;54.304;8.826;2022-12-04T01:12:05;1.20;99.90
32769;DHT22;23049;54.304;8.826;2022-12-04T01:14:31;1.20;99.90
32769;DHT22;23049;54.304;8.826;2022-12-04T01:16:57;1.20;99.90
32769;DHT22;23049;54.304;8.826;2022-12-04T01:19:23;1.20;99.90
32769;DHT22;23049;54.304;8.826;2022-12-04T01:21:48;1.20;99.90
32769;DHT22;23049;54.304;8.826;2022-12-04T01:24:14;1.20;99.90
32769;DHT22;23049;54.304;8.826;2022-12-04T01:26:39;1.20;99.90
32769;DHT22;23049;54.304;8.826;2022-12-04T01:29:05;1.10;99.90
32769;DHT22;23049;54.304;8.826;2022-12-04T01:31:30;1.20;99.90
32769;DHT22;23049;54.304;8.826;2022-12-04T01:33:56;1.00;99.90
32769;DHT22;23049;54.304;8.826;2022-12-04T01:36:22;1.00;99.90
32769;DHT22;23049;54.304;8.826;2022-12-04T01:38:48;1.00;99.90
32769;DHT22;23049;54.304;8.826;2022-12-04T01:41:15;0.90;99.90
32769;DHT22;23049;54.304;8.826;2022-12-04T01:43:41;0.90;99.90
32769;DHT22;23049;54.304;8.826;2022-12-04T01:46:07;0.90;99.90
32769;DHT22;23049;54.304;8.826;2022-12-04T01:48:37;0.90;99.90
32769;DHT22;23049;54.304;8.826;2022-12-04T01:53:58;0.80;99.90
32769;DHT22;23049;54.304;8.826;2022-12-04T01:56:25;0.70;99.90
32769;DHT22;23049;54.304;8.826;2022-12-04T01:58:55;0.70;99.90
32769;DHT22;23049;54.304;8.826;2022-12-04T02:01:23;0.70;99.90
32769;DHT22;23049;54.304;8.826;2022-12-04T02:03:51;0.70;99.90
32769;DHT22;23049;54.304;8.826;2022-12-04T02:06:17;0.70;99.90
32769;DHT22;23049;54.304;8.826;2022-12-04T02:08:43;0.70;99.90
32769;DHT22;23049;54.304;8.826;2022-12-04T02:11:11;0.70;99.90
32769;DHT22;23049;54.304;8.826;2022-12-04T02:13:44;0.70;99.90
32769;DHT22;23049;54.304;8.826;2022-12-04T02:16:14;0.70;99.90
32769;DHT22;23049;54.304;8.826;2022-12-04T02:21:33;0.80;99.90
32769;DHT22;23049;54.304;8.826;2022-12-04T02:29:07;0.70;99.90
32769;DHT22;23049;54.304;8.826;2022-12-04T02:31:57;0.70;99.90
32769;DHT22;23049;54.304;8.826;2022-12-04T02:36:51;0.80;99.90
32769;DHT22;23049;54.304;8.826;2022-12-04T02:39:24;0.70;99.90
32769;DHT22;23049;54.304;8.826;2022-12-04T02:42:00;0.80;99.90
32769;DHT22;23049;54.304;8.826;2022-12-04T02:44:33;0.80;99.90
32769;DHT22;23049;54.304;8.826;2022-12-04T02:47:00;0.70;99.90
32769;DHT22;23049;54.304;8.826;2022-12-04T02:50:12;0.70;99.90
32769;DHT22;23049;54.304;8.826;2022-12-04T02:52:14;0.80;99.90
32769;DHT22;23049;54.304;8.826;2022-12-04T02:54:41;0.80;99.90
32769;DHT22;23049;54.304;8.826;2022-12-04T02:57:10;0.80;99.90
32769;DHT22;23049;54.304;8.826;2022-12-04T02:59:38;0.80;99.90
32769;DHT22;23049;54.304;8.826;2022-12-04T03:02:09;0.80;99.90
32769;DHT22;23049;54.304;8.826;2022-12-04T03:04:37;0.90;99.90
32769;DHT22;23049;54.304;8.826;2022-12-04T03:07:21;0.90;99.90
32769;DHT22;23049;54.304;8.826;2022-12-04T03:09:50;0.80;99.90
32769;DHT22;23049;54.304;8.826;2022-12-04T03:12:23;0.90;99.90
32769;DHT22;23049;54.304;8.826;2022-12-04T03:15:00;0.90;99.90
32769;DHT22;23049;54.304;8.826;2022-12-04T03:17:31;0.90;99.90
32769;DHT22;23049;54.304;8.826;2022-12-04T03:19:58;0.90;99.90
32769;DHT22;23049;54.304;8.826;2022-12-04T03:22:26;0.90;99.90
32769;DHT22;23049;54.304;8.826;2022-12-04T03:24:52;0.90;99.90
32769;DHT22;23049;54.304;8.826;2022-12-04T03:35:28;1.00;99.90
32769;DHT22;23049;54.304;8.826;2022-12-04T03:37:56;1.00;99.90
32769;DHT22;23049;54.304;8.826;2022-12-04T03:42:58;1.00;99.90
32769;DHT22;23049;54.304;8.826;2022-12-04T03:45:47;1.00;99.90
32769;DHT22;23049;54.304;8.826;2022-12-04T03:48:16;1.00;99.90
32769;DHT22;23049;54.304;8.826;2022-12-04T03:50:47;1.10;99.90
32769;DHT22;23049;54.304;8.826;2022-12-04T03:53:16;1.10;99.90
32769;DHT22;23049;54.304;8.826;2022-12-04T03:55:48;1.10;99.90
32769;DHT22;23049;54.304;8.826;2022-12-04T03:58:17;1.10;99.90
32769;DHT22;23049;54.304;8.826;2022-12-04T04:00:44;1.10;99.90
32769;DHT22;23049;54.304;8.826;2022-12-04T04:03:32;1.10;99.90
32769;DHT22;23049;54.304;8.826;2022-12-04T04:05:58;1.10;99.90
32769;DHT22;23049;54.304;8.826;2022-12-04T04:08:26;1.10;99.90
32769;DHT22;23049;54.304;8.826;2022-12-04T04:13:51;1.10;99.90
32769;DHT22;23049;54.304;8.826;2022-12-04T04:16:36;1.10;99.90
32769;DHT22;23049;54.304;8.826;2022-12-04T04:19:21;1.20;99.90
32769;DHT22;23049;54.304;8.826;2022-12-04T04:22:08;1.20;99.90
32769;DHT22;23049;54.304;8.826;2022-12-04T04:24:54;1.20;99.90
32769;DHT22;23049;54.304;8.826;2022-12-04T04:27:20;1.20;99.90
32769;DHT22;23049;54.304;8.826;2022-12-04T04:29:46;1.20;99.90
32769;DHT22;23049;54.304;8.826;2022-12-04T04:42:53;1.30;99.90
32769;DHT22;23049;54.304;8.826;2022-12-04T04:45:24;1.30;99.90
32769;DHT22;23049;54.304;8.826;2022-12-04T04:48:05;1.30;99.90
32769;DHT22;23049;54.304;8.826;2022-12-04T04:50:32;1.30;99.90
32769;DHT22;23049;54.304;8.826;2022-12-04T04:52:59;1.30;99.90
32769;DHT22;23049;54.304;8.826;2022-12-04T04:55:25;1.30;99.90
32769;DHT22;23049;54.304;8.826;2022-12-04T04:57:51;1.40;99.90
32769;DHT22;23049;54.304;8.826;2022-12-04T05:00:18;1.40;99.90
32769;DHT22;23049;54.304;8.826;2022-12-04T05:02:44;1.40;99.90
32769;DHT22;23049;54.304;8.826;2022-12-04T05:05:10;1.40;99.90
32769;DHT22;23049;54.304;8.826;2022-12-04T05:07:36;1.40;99.90
32769;DHT22;23049;54.304;8.826;2022-12-04T05:10:01;1.40;99.90
32769;DHT22;23049;54.304;8.826;2022-12-04T05:12:27;1.40;99.90
32769;DHT22;23049;54.304;8.826;2022-12-04T05:14:52;1.40;99.90
32769;DHT22;23049;54.304;8.826;2022-12-04T05:17:18;1.40;99.90
32769;DHT22;23049;54.304;8.826;2022-12-04T05:19:43;1.40;99.90
32769;DHT22;23049;54.304;8.826;2022-12-04T05:22:22;1.40;99.90
32769;DHT22;23049;54.304;8.826;2022-12-04T05:24:48;1.40;99.90
32769;DHT22;23049;54.304;8.826;2022-12-04T05:27:13;1.30;99.90
32769;DHT22;23049;54.304;8.826;2022-12-04T05:29:38;1.30;99.90
32769;DHT22;23049;54.304;8.826;2022-12-04T05:32:04;1.40;99.90
32769;DHT22;23049;54.304;8.826;2022-12-04T05:34:30;1.30;99.90
32769;DHT22;23049;54.304;8.826;2022-12-04T05:36:55;1.30;99.90
32769;DHT22;23049;54.304;8.826;2022-12-04T05:39:21;1.30;99.90
32769;DHT22;23049;54.304;8.826;2022-12-04T05:41:46;1.30;99.90
32769;DHT22;23049;54.304;8.826;2022-12-04T05:44:12;1.30;99.90
32769;DHT22;23049;54.304;8.826;2022-12-04T05:46:37;1.30;99.90
32769;DHT22;23049;54.304;8.826;2022-12-04T05:49:03;1.30;99.90
32769;DHT22;23049;54.304;8.826;2022-12-04T05:51:28;1.40;99.90
32769;DHT22;23049;54.304;8.826;2022-12-04T05:53:54;1.40;99.90
32769;DHT22;23049;54.304;8.826;2022-12-04T05:56:19;1.40;99.90
32769;DHT22;23049;54.304;8.826;2022-12-04T05:58:45;1.40;99.90
32769;DHT22;23049;54.304;8.826;2022-12-04T06:01:11;1.40;99.90
32769;DHT22;23049;54.304;8.826;2022-12-04T06:03:37;1.40;99.90
32769;DHT22;23049;54.304;8.826;2022-12-04T06:06:03;1.40;99.90
32769;DHT22;23049;54.304;8.826;2022-12-04T06:08:29;1.50;99.90
32769;DHT22;23049;54.304;8.826;2022-12-04T06:10:55;1.50;99.90
32769;DHT22;23049;54.304;8.826;2022-12-04T06:13:20;1.50;99.90
32769;DHT22;23049;54.304;8.826;2022-12-04T06:15:46;1.40;99.90
32769;DHT22;23049;54.304;8.826;2022-12-04T06:18:11;1.40;99.90
32769;DHT22;23049;54.304;8.826;2022-12-04T06:20:37;1.50;99.90
32769;DHT22;23049;54.304;8.826;2022-12-04T06:23:02;1.40;99.90
32769;DHT22;23049;54.304;8.826;2022-12-04T06:25:28;1.50;99.90
32769;DHT22;23049;54.304;8.826;2022-12-04T06:27:53;1.40;99.90
32769;DHT22;23049;54.304;8.826;2022-12-04T06:30:19;1.40;99.90
32769;DHT22;23049;54.304;8.826;2022-12-04T06:32:44;1.50;99.90
32769;DHT22;23049;54.304;8.826;2022-12-04T06:35:10;1.50;99.90
32769;DHT22;23049;54.304;8.826;2022-12-04T06:37:35;1.40;99.90
32769;DHT22;23049;54.304;8.826;2022-12-04T06:40:01;1.50;99.90
32769;DHT22;23049;54.304;8.826;2022-12-04T06:42:26;1.50;99.90
32769;DHT22;23049;54.304;8.826;2022-12-04T06:44:52;1.50;99.90
32769;DHT22;23049;54.304;8.826;2022-12-04T06:47:17;1.50;99.90
32769;DHT22;23049;54.304;8.826;2022-12-04T06:49:43;1.50;99.90
32769;DHT22;23049;54.304;8.826;2022-12-04T06:52:10;1.50;99.90
32769;DHT22;23049;54.304;8.826;2022-12-04T06:54:35;1.50;99.90
32769;DHT22;23049;54.304;8.826;2022-12-04T06:57:01;1.50;99.90
32769;DHT22;23049;54.304;8.826;2022-12-04T06:59:26;1.50;99.90
32769;DHT22;23049;54.304;8.826;2022-12-04T07:01:52;1.50;99.90
32769;DHT22;23049;54.304;8.826;2022-12-04T07:04:17;1.50;99.90
32769;DHT22;23049;54.304;8.826;2022-12-04T07:06:43;1.50;99.90
32769;DHT22;23049;54.304;8.826;2022-12-04T07:09:09;1.50;99.90
32769;DHT22;23049;54.304;8.826;2022-12-04T07:11:35;1.50;99.90
32769;DHT22;23049;54.304;8.826;2022-12-04T07:14:01;1.50;99.90
32769;DHT22;23049;54.304;8.826;2022-12-04T07:16:28;1.50;99.90
32769;DHT22;23049;54.304;8.826;2022-12-04T07:18:54;1.50;99.90
32769;DHT22;23049;54.304;8.826;2022-12-04T07:21:24;1.50;99.90
32769;DHT22;23049;54.304;8.826;2022-12-04T07:23:51;1.50;99.90
32769;DHT22;23049;54.304;8.826;2022-12-04T07:26:18;1.50;99.90
32769;DHT22;23049;54.304;8.826;2022-12-04T07:28:43;1.50;99.90
32769;DHT22;23049;54.304;8.826;2022-12-04T07:31:13;1.50;99.90
32769;DHT22;23049;54.304;8.826;2022-12-04T07:33:39;1.40;99.90
32769;DHT22;23049;54.304;8.826;2022-12-04T07:36:06;1.40;99.90
32769;DHT22;23049;54.304;8.826;2022-12-04T07:38:32;1.30;99.90
32769;DHT22;23049;54.304;8.826;2022-12-04T07:40:59;1.30;99.90
32769;DHT22;23049;54.304;8.826;2022-12-04T07:43:25;1.30;99.90
32769;DHT22;23049;54.304;8.826;2022-12-04T07:45:51;1.20;99.90
32769;DHT22;23049;54.304;8.826;2022-12-04T07:48:16;1.10;99.90
32769;DHT22;23049;54.304;8.826;2022-12-04T07:50:42;1.10;99.90
32769;DHT22;23049;54.304;8.826;2022-12-04T07:53:08;1.00;99.90
32769;DHT22;23049;54.304;8.826;2022-12-04T07:55:33;1.00;99.90
32769;DHT22;23049;54.304;8.826;2022-12-04T07:57:59;1.10;99.90
32769;DHT22;23049;54.304;8.826;2022-12-04T08:00:24;1.10;99.90
32769;DHT22;23049;54.304;8.826;2022-12-04T08:02:50;1.20;99.90
32769;DHT22;23049;54.304;8.826;2022-12-04T08:05:16;1.30;99.90
32769;DHT22;23049;54.304;8.826;2022-12-04T08:07:41;1.30;99.90
32769;DHT22;23049;54.304;8.826;2022-12-04T08:10:07;1.40;99.90
32769;DHT22;23049;54.304;8.826;2022-12-04T08:12:33;1.40;99.90
32769;DHT22;23049;54.304;8.826;2022-12-04T08:14:58;1.50;99.90
32769;DHT22;23049;54.304;8.826;2022-12-04T08:17:24;1.50;99.90
32769;DHT22;23049;54.304;8.826;2022-12-04T08:19:49;1.60;99.90
32769;DHT22;23049;54.304;8.826;2022-12-04T08:22:15;1.60;99.90
32769;DHT22;23049;54.304;8.826;2022-12-04T08:24:40;1.70;99.90
32769;DHT22;23049;54.304;8.826;2022-12-04T08:27:06;1.70;99.90
32769;DHT22;23049;54.304;8.826;2022-12-04T08:29:31;1.80;99.90
32769;DHT22;23049;54.304;8.826;2022-12-04T08:31:57;1.80;99.90
32769;DHT22;23049;54.304;8.826;2022-12-04T08:34:23;1.80;99.90
32769;DHT22;23049;54.304;8.826;2022-12-04T08:36:48;1.80;99.90
32769;DHT22;23049;54.304;8.826;2022-12-04T08:39:14;1.90;99.90
32769;DHT22;23049;54.304;8.826;2022-12-04T08:41:39;1.90;99.90
32769;DHT22;23049;54.304;8.826;2022-12-04T08:44:05;1.90;99.90
32769;DHT22;23049;54.304;8.826;2022-12-04T08:46:30;2.00;99.90
32769;DHT22;23049;54.304;8.826;2022-12-04T08:48:56;2.10;99.90
32769;DHT22;23049;54.304;8.826;2022-12-04T08:51:23;2.20;99.90
32769;DHT22;23049;54.304;8.826;2022-12-04T08:53:55;2.20;99.90
32769;DHT22;23049;54.304;8.826;2022-12-04T08:56:21;2.20;99.90
32769;DHT22;23049;54.304;8.826;2022-12-04T08:58:47;2.30;99.90
32769;DHT22;23049;54.304;8.826;2022-12-04T09:01:13;2.30;99.90
32769;DHT22;23049;54.304;8.826;2022-12-04T09:03:39;2.40;99.90
32769;DHT22;23049;54.304;8.826;2022-12-04T09:06:06;2.40;99.90
32769;DHT22;23049;54.304;8.826;2022-12-04T09:08:32;2.40;99.90
32769;DHT22;23049;54.304;8.826;2022-12-04T09:11:04;2.40;99.90
32769;DHT22;23049;54.304;8.826;2022-12-04T09:13:30;2.50;99.90
32769;DHT22;23049;54.304;8.826;2022-12-04T09:15:55;2.60;99.90
32769;DHT22;23049;54.304;8.826;2022-12-04T09:18:21;2.60;99.90
32769;DHT22;23049;54.304;8.826;2022-12-04T09:20:53;2.70;99.90
32769;DHT22;23049;54.304;8.826;2022-12-04T09:23:19;2.70;99.90
32769;DHT22;23049;54.304;8.826;2022-12-04T09:25:44;2.70;99.90
32769;DHT22;23049;54.304;8.826;2022-12-04T09:28:10;2.80;99.90
32769;DHT22;23049;54.304;8.826;2022-12-04T09:30:35;2.90;99.90
32769;DHT22;23049;54.304;8.826;2022-12-04T09:33:01;2.90;99.90
32769;DHT22;23049;54.304;8.826;2022-12-04T09:35:26;2.90;99.90
32769;DHT22;23049;54.304;8.826;2022-12-04T09:37:52;3.00;99.90
32769;DHT22;23049;54.304;8.826;2022-12-04T09:40:25;3.00;99.90
32769;DHT22;23049;54.304;8.826;2022-12-04T09:45:41;3.10;99.90
32769;DHT22;23049;54.304;8.826;2022-12-04T09:48:08;3.10;99.90
32769;DHT22;23049;54.304;8.826;2022-12-04T09:50:39;3.20;99.90
32769;DHT22;23049;54.304;8.826;2022-12-04T09:53:08;3.20;99.90
32769;DHT22;23049;54.304;8.826;2022-12-04T09:55:37;3.20;99.90
32769;DHT22;23049;54.304;8.826;2022-12-04T09:58:05;3.20;99.90
32769;DHT22;23049;54.304;8.826;2022-12-04T10:00:35;3.30;99.90
32769;DHT22;23049;54.304;8.826;2022-12-04T10:03:02;3.30;99.90
32769;DHT22;23049;54.304;8.826;2022-12-04T10:05:41;3.40;99.90
32769;DHT22;23049;54.304;8.826;2022-12-04T10:08:12;3.40;99.90
32769;DHT22;23049;54.304;8.826;2022-12-04T10:10:41;3.40;99.90
32769;DHT22;23049;54.304;8.826;2022-12-04T10:13:24;3.40;99.90
32769;DHT22;23049;54.304;8.826;2022-12-04T10:16:07;3.50;99.90
32769;DHT22;23049;54.304;8.826;2022-12-04T10:25:54;3.50;99.90
32769;DHT22;23049;54.304;8.826;2022-12-04T10:30:45;3.70;99.90
32769;DHT22;23049;54.304;8.826;2022-12-04T10:33:22;3.70;99.90
32769;DHT22;23049;54.304;8.826;2022-12-04T10:35:49;3.70;99.90
32769;DHT22;23049;54.304;8.826;2022-12-04T10:41:02;3.80;99.90
32769;DHT22;23049;54.304;8.826;2022-12-04T10:43:42;3.80;99.90
32769;DHT22;23049;54.304;8.826;2022-12-04T10:48:39;3.90;99.90
32769;DHT22;23049;54.304;8.826;2022-12-04T10:51:08;3.90;99.90
32769;DHT22;23049;54.304;8.826;2022-12-04T10:53:37;4.00;99.90
32769;DHT22;23049;54.304;8.826;2022-12-04T10:56:10;4.00;99.90
32769;DHT22;23049;54.304;8.826;2022-12-04T10:58:36;4.10;99.90
32769;DHT22;23049;54.304;8.826;2022-12-04T11:01:02;4.20;99.90
32769;DHT22;23049;54.304;8.826;2022-12-04T11:03:29;4.20;99.90
32769;DHT22;23049;54.304;8.826;2022-12-04T11:06:02;4.20;99.90
32769;DHT22;23049;54.304;8.826;2022-12-04T11:08:40;4.20;99.90
32769;DHT22;23049;54.304;8.826;2022-12-04T11:11:12;4.30;99.90
32769;DHT22;23049;54.304;8.826;2022-12-04T11:13:39;4.30;99.90
32769;DHT22;23049;54.304;8.826;2022-12-04T11:16:05;4.40;99.90
32769;DHT22;23049;54.304;8.826;2022-12-04T11:18:32;4.40;99.90
32769;DHT22;23049;54.304;8.826;2022-12-04T11:23:48;4.40;99.90
32769;DHT22;23049;54.304;8.826;2022-12-04T11:26:12;4.40;99.90
32769;DHT22;23049;54.304;8.826;2022-12-04T11:28:39;4.50;99.90
32769;DHT22;23049;54.304;8.826;2022-12-04T11:31:08;4.50;99.90
32769;DHT22;23049;54.304;8.826;2022-12-04T11:36:19;4.50;99.90
32769;DHT22;23049;54.304;8.826;2022-12-04T11:38:45;4.50;99.90
32769;DHT22;23049;54.304;8.826;2022-12-04T11:41:27;4.40;99.90
32769;DHT22;23049;54.304;8.826;2022-12-04T11:43:53;4.40;99.90
32769;DHT22;23049;54.304;8.826;2022-12-04T11:46:24;4.30;99.90
32769;DHT22;23049;54.304;8.826;2022-12-04T11:48:50;4.30;99.90
32769;DHT22;23049;54.304;8.826;2022-12-04T11:51:37;4.30;99.90
32769;DHT22;23049;54.304;8.826;2022-12-04T11:56:33;4.20;99.90
32769;DHT22;23049;54.304;8.826;2022-12-04T12:07:06;4.20;99.90
32769;DHT22;23049;54.304;8.826;2022-12-04T12:12:09;4.20;99.90
32769;DHT22;23049;54.304;8.826;2022-12-04T12:17:17;4.20;99.90
32769;DHT22;23049;54.304;8.826;2022-12-04T12:25:12;4.20;99.90
32769;DHT22;23049;54.304;8.826;2022-12-04T12:27:54;4.20;99.90
32769;DHT22;23049;54.304;8.826;2022-12-04T12:30:22;4.30;99.90
32769;DHT22;23049;54.304;8.826;2022-12-04T12:35:34;4.40;99.90
32769;DHT22;23049;54.304;8.826;2022-12-04T12:38:09;4.40;99.90
32769;DHT22;23049;54.304;8.826;2022-12-04T12:40:42;4.50;99.90
32769;DHT22;23049;54.304;8.826;2022-12-04T12:43:12;4.60;99.90
32769;DHT22;23049;54.304;8.826;2022-12-04T12:45:42;4.60;99.90
32769;DHT22;23049;54.304;8.826;2022-12-04T12:50:48;4.70;99.90
32769;DHT22;23049;54.304;8.826;2022-12-04T12:53:17;4.70;99.90
32769;DHT22;23049;54.304;8.826;2022-12-04T12:55:44;4.70;99.90
32769;DHT22;23049;54.304;8.826;2022-12-04T12:58:24;4.80;99.90
32769;DHT22;23049;54.304;8.826;2022-12-04T13:00:56;4.70;99.90
32769;DHT22;23049;54.304;8.826;2022-12-04T13:06:01;4.70;99.90
32769;DHT22;23049;54.304;8.826;2022-12-04T13:08:29;4.70;99.90
32769;DHT22;23049;54.304;8.826;2022-12-04T13:11:02;4.70;99.90
32769;DHT22;23049;54.304;8.826;2022-12-04T13:13:34;4.70;99.90
32769;DHT22;23049;54.304;8.826;2022-12-04T13:16:12;4.60;99.90
32769;DHT22;23049;54.304;8.826;2022-12-04T13:18:42;4.60;99.90
32769;DHT22;23049;54.304;8.826;2022-12-04T13:21:14;4.60;99.90
32769;DHT22;23049;54.304;8.826;2022-12-04T13:26:15;4.60;99.90
32769;DHT22;23049;54.304;8.826;2022-12-04T13:31:51;4.60;99.90
32769;DHT22;23049;54.304;8.826;2022-12-04T13:42:00;4.70;99.90
32769;DHT22;23049;54.304;8.826;2022-12-04T13:44:26;4.70;99.90
32769;DHT22;23049;54.304;8.826;2022-12-04T13:46:56;4.80;99.90
32769;DHT22;23049;54.304;8.826;2022-12-04T13:49:24;4.70;99.90
32769;DHT22;23049;54.304;8.826;2022-12-04T13:51:51;4.70;99.90
32769;DHT22;23049;54.304;8.826;2022-12-04T13:54:21;4.70;99.90
32769;DHT22;23049;54.304;8.826;2022-12-04T13:56:49;4.70;99.90
32769;DHT22;23049;54.304;8.826;2022-12-04T14:01:59;4.70;99.90
32769;DHT22;23049;54.304;8.826;2022-12-04T14:06:58;4.70;99.90
32769;DHT22;23049;54.304;8.826;2022-12-04T14:09:37;4.70;99.90
32769;DHT22;23049;54.304;8.826;2022-12-04T14:12:04;4.70;99.90
32769;DHT22;23049;54.304;8.826;2022-12-04T14:14:41;4.70;99.90
32769;DHT22;23049;54.304;8.826;2022-12-04T14:17:17;4.70;99.90
32769;DHT22;23049;54.304;8.826;2022-12-04T14:19:44;4.70;99.90
32769;DHT22;23049;54.304;8.826;2022-12-04T14:24:53;4.70;99.90
32769;DHT22;23049;54.304;8.826;2022-12-04T14:27:42;4.70;99.90
32769;DHT22;23049;54.304;8.826;2022-12-04T14:32:43;4.70;99.90
32769;DHT22;23049;54.304;8.826;2022-12-04T14:35:12;4.70;99.90
32769;DHT22;23049;54.304;8.826;2022-12-04T14:37:39;4.70;99.90
32769;DHT22;23049;54.304;8.826;2022-12-04T14:40:15;4.70;99.90
32769;DHT22;23049;54.304;8.826;2022-12-04T14:42:45;4.70;99.90
32769;DHT22;23049;54.304;8.826;2022-12-04T14:45:19;4.70;99.90
32769;DHT22;23049;54.304;8.826;2022-12-04T14:47:54;4.70;99.90
32769;DHT22;23049;54.304;8.826;2022-12-04T14:50:41;4.70;99.90
32769;DHT22;23049;54.304;8.826;2022-12-04T14:55:40;4.70;99.90
32769;DHT22;23049;54.304;8.826;2022-12-04T14:58:29;4.70;99.90
32769;DHT22;23049;54.304;8.826;2022-12-04T15:00:55;4.70;99.90
32769;DHT22;23049;54.304;8.826;2022-12-04T15:03:21;4.70;99.90
32769;DHT22;23049;54.304;8.826;2022-12-04T15:05:48;4.70;99.90
32769;DHT22;23049;54.304;8.826;2022-12-04T15:08:13;4.70;99.90
32769;DHT22;23049;54.304;8.826;2022-12-04T15:10:39;4.70;99.90
32769;DHT22;23049;54.304;8.826;2022-12-04T15:13:32;4.70;99.90
32769;DHT22;23049;54.304;8.826;2022-12-04T15:16:06;4.70;99.90
32769;DHT22;23049;54.304;8.826;2022-12-04T15:18:32;4.70;99.90
32769;DHT22;23049;54.304;8.826;2022-12-04T15:20:58;4.70;99.90
32769;DHT22;23049;54.304;8.826;2022-12-04T15:23:34;4.70;99.90
32769;DHT22;23049;54.304;8.826;2022-12-04T15:26:19;4.70;99.90
32769;DHT22;23049;54.304;8.826;2022-12-04T15:28:56;4.70;99.90
32769;DHT22;23049;54.304;8.826;2022-12-04T15:31:24;4.70;99.90
32769;DHT22;23049;54.304;8.826;2022-12-04T15:33:51;4.80;99.90
32769;DHT22;23049;54.304;8.826;2022-12-04T15:36:18;4.80;99.90
32769;DHT22;23049;54.304;8.826;2022-12-04T15:38:48;4.80;99.90
32769;DHT22;23049;54.304;8.826;2022-12-04T15:41:29;4.80;99.90
32769;DHT22;23049;54.304;8.826;2022-12-04T15:43:55;4.80;99.90
32769;DHT22;23049;54.304;8.826;2022-12-04T15:46:22;4.70;99.90
32769;DHT22;23049;54.304;8.826;2022-12-04T15:48:49;4.70;99.90
32769;DHT22;23049;54.304;8.826;2022-12-04T15:51:15;4.70;99.90
32769;DHT22;23049;54.304;8.826;2022-12-04T15:53:42;4.70;99.90
32769;DHT22;23049;54.304;8.826;2022-12-04T15:56:16;4.70;99.90
32769;DHT22;23049;54.304;8.826;2022-12-04T15:58:47;4.70;99.90
32769;DHT22;23049;54.304;8.826;2022-12-04T16:01:14;4.70;99.90
32769;DHT22;23049;54.304;8.826;2022-12-04T16:08:59;4.70;99.90
32769;DHT22;23049;54.304;8.826;2022-12-04T16:16:44;4.60;99.90
32769;DHT22;23049;54.304;8.826;2022-12-04T16:19:31;4.60;99.90
32769;DHT22;23049;54.304;8.826;2022-12-04T16:21:56;4.70;99.90
32769;DHT22;23049;54.304;8.826;2022-12-04T16:24:22;4.60;99.90
32769;DHT22;23049;54.304;8.826;2022-12-04T16:26:48;4.70;99.90
32769;DHT22;23049;54.304;8.826;2022-12-04T16:29:14;4.70;99.90
32769;DHT22;23049;54.304;8.826;2022-12-04T16:31:39;4.60;99.90
32769;DHT22;23049;54.304;8.826;2022-12-04T16:34:05;4.70;99.90
32769;DHT22;23049;54.304;8.826;2022-12-04T16:36:31;4.70;99.90
32769;DHT22;23049;54.304;8.826;2022-12-04T16:38:56;4.70;99.90
32769;DHT22;23049;54.304;8.826;2022-12-04T16:41:22;4.70;99.90
32769;DHT22;23049;54.304;8.826;2022-12-04T16:43:54;4.70;99.90
32769;DHT22;23049;54.304;8.826;2022-12-04T16:46:21;4.70;99.90
32769;DHT22;23049;54.304;8.826;2022-12-04T16:48:47;4.70;99.90
32769;DHT22;23049;54.304;8.826;2022-12-04T16:51:30;4.80;99.90
32769;DHT22;23049;54.304;8.826;2022-12-04T16:53:56;4.80;99.90
32769;DHT22;23049;54.304;8.826;2022-12-04T16:56:22;4.80;99.90
32769;DHT22;23049;54.304;8.826;2022-12-04T16:58:50;4.80;99.90
32769;DHT22;23049;54.304;8.826;2022-12-04T17:01:19;4.80;99.90
32769;DHT22;23049;54.304;8.826;2022-12-04T17:03:46;4.80;99.90
32769;DHT22;23049;54.304;8.826;2022-12-04T17:06:11;4.90;99.90
32769;DHT22;23049;54.304;8.826;2022-12-04T17:08:37;4.80;99.90
32769;DHT22;23049;54.304;8.826;2022-12-04T17:11:02;4.90;99.90
32769;DHT22;23049;54.304;8.826;2022-12-04T17:13:28;4.90;99.90
32769;DHT22;23049;54.304;8.826;2022-12-04T17:15:53;4.90;99.90
32769;DHT22;23049;54.304;8.826;2022-12-04T17:18:19;4.90;99.90
32769;DHT22;23049;54.304;8.826;2022-12-04T17:20:44;4.90;99.90
32769;DHT22;23049;54.304;8.826;2022-12-04T17:23:10;4.90;99.90
32769;DHT22;23049;54.304;8.826;2022-12-04T17:25:37;4.90;99.90
32769;DHT22;23049;54.304;8.826;2022-12-04T17:28:02;4.90;99.90
32769;DHT22;23049;54.304;8.826;2022-12-04T17:30:28;4.90;99.90
32769;DHT22;23049;54.304;8.826;2022-12-04T17:32:53;4.90;99.90
32769;DHT22;23049;54.304;8.826;2022-12-04T17:35:19;5.00;99.90
32769;DHT22;23049;54.304;8.826;2022-12-04T17:37:45;5.00;99.90
32769;DHT22;23049;54.304;8.826;2022-12-04T17:40:11;5.00;99.90
32769;DHT22;23049;54.304;8.826;2022-12-04T17:42:39;5.00;99.90
32769;DHT22;23049;54.304;8.826;2022-12-04T17:45:04;5.00;99.90
32769;DHT22;23049;54.304;8.826;2022-12-04T17:47:30;5.00;99.90
32769;DHT22;23049;54.304;8.826;2022-12-04T17:49:55;5.00;99.90
32769;DHT22;23049;54.304;8.826;2022-12-04T17:52:21;5.00;99.90
32769;DHT22;23049;54.304;8.826;2022-12-04T17:54:50;5.10;99.90
32769;DHT22;23049;54.304;8.826;2022-12-04T17:57:16;5.10;99.90
32769;DHT22;23049;54.304;8.826;2022-12-04T17:59:42;5.10;99.90